Time;durP1;ratioP1;P1;durP2;ratioP2;P2;SDS_P1;SDS_P2;PMS_P1;PMS_P2;Temp;Humidity;BMP_temperature;BMP_pressure;BME280_temperature;BME280_humidity;BME280_pressure;Samples;Min_cycle;Max_cycle;Signal;HPM_P1;HPM_P2
2023/09/30 00:00:17;;;;;;;7.10;2.72;;;24.40;48.30;;;;;;5106368;27;45426;-66
2023/09/30 00:02:44;;;;;;;6.75;2.30;;;24.40;48.30;;;;;;5106558;27;45382;-66
2023/09/30 00:05:11;;;;;;;6.40;2.67;;;24.40;48.40;;;;;;5106527;27;45218;-66
2023/09/30 00:07:38;;;;;;;6.65;2.90;;;24.30;48.40;;;;;;5106861;27;45157;-66
2023/09/30 00:10:07;;;;;;;7.35;3.03;;;24.30;48.40;;;;;;5106307;27;46375;-66
2023/09/30 00:12:34;;;;;;;6.20;2.40;;;24.30;48.50;;;;;;5106666;27;45422;-66
2023/09/30 00:15:01;;;;;;;9.00;2.83;;;24.30;48.50;;;;;;5106521;27;45184;-66
2023/09/30 00:17:28;;;;;;;7.28;2.90;;;24.30;48.50;;;;;;5106753;27;45398;-66
2023/09/30 00:19:55;;;;;;;6.68;2.78;;;24.20;48.60;;;;;;5106084;27;45448;-66
2023/09/30 00:22:21;;;;;;;5.35;3.00;;;24.30;48.70;;;;;;5106254;27;45353;-66
2023/09/30 00:24:48;;;;;;;6.72;2.75;;;24.20;48.60;;;;;;5106201;27;45332;-66
2023/09/30 00:27:16;;;;;;;4.60;2.58;;;24.20;48.70;;;;;;5106592;27;45219;-66
2023/09/30 00:29:43;;;;;;;5.18;2.38;;;24.20;48.70;;;;;;5106127;27;47542;-65
2023/09/30 00:32:10;;;;;;;3.75;2.28;;;24.20;48.70;;;;;;5106149;27;45374;-66
2023/09/30 00:34:37;;;;;;;5.60;2.72;;;24.20;48.80;;;;;;5106512;27;45267;-66
2023/09/30 00:37:04;;;;;;;6.30;2.65;;;24.10;48.80;;;;;;5106145;27;45518;-66
2023/09/30 00:39:31;;;;;;;5.80;2.70;;;24.20;48.90;;;;;;5105959;27;45463;-66
2023/09/30 00:41:59;;;;;;;5.25;2.70;;;24.20;48.80;;;;;;5105769;27;45215;-66
2023/09/30 00:44:27;;;;;;;5.93;2.72;;;24.10;48.80;;;;;;5106167;27;45248;-66
2023/09/30 00:46:54;;;;;;;6.10;2.60;;;24.10;48.70;;;;;;5106272;27;45465;-66
2023/09/30 00:49:21;;;;;;;5.72;2.60;;;24.10;48.80;;;;;;5105772;27;48510;-66
2023/09/30 00:51:49;;;;;;;5.95;2.38;;;24.10;48.80;;;;;;5105996;27;45235;-66
2023/09/30 00:54:16;;;;;;;6.13;2.75;;;24.10;48.80;;;;;;5105898;27;45233;-66
2023/09/30 00:56:45;;;;;;;7.88;2.50;;;24.10;49.50;;;;;;5106134;27;45348;-65
2023/09/30 00:59:12;;;;;;;5.55;2.80;;;24.10;48.90;;;;;;5106838;27;45282;-65
2023/09/30 01:01:41;;;;;;;4.55;2.60;;;24.00;48.90;;;;;;5109359;27;45192;-66
2023/09/30 01:04:08;;;;;;;5.82;2.30;;;24.00;48.90;;;;;;5109370;27;45385;-66
2023/09/30 01:06:35;;;;;;;4.57;2.47;;;24.00;48.90;;;;;;5109502;27;45455;-66
2023/09/30 01:09:02;;;;;;;3.85;2.17;;;24.00;49.00;;;;;;5109090;27;46296;-66
2023/09/30 01:11:29;;;;;;;6.07;2.85;;;24.00;49.10;;;;;;5109306;27;45252;-66
2023/09/30 01:13:57;;;;;;;6.63;2.60;;;23.90;49.10;;;;;;5109257;27;45339;-66
2023/09/30 01:16:24;;;;;;;4.13;2.25;;;23.90;49.10;;;;;;5109302;27;45569;-66
2023/09/30 01:18:51;;;;;;;5.72;2.65;;;23.90;49.10;;;;;;5109114;27;46667;-66
2023/09/30 01:21:18;;;;;;;3.92;2.05;;;23.90;49.70;;;;;;5109030;27;45221;-67
2023/09/30 01:23:47;;;;;;;5.18;2.47;;;23.90;49.20;;;;;;5109191;27;45209;-66
2023/09/30 01:26:14;;;;;;;4.25;2.25;;;23.80;49.10;;;;;;5109123;27;45303;-66
2023/09/30 01:28:41;;;;;;;5.28;2.70;;;23.80;49.20;;;;;;5108742;27;46449;-66
2023/09/30 01:31:08;;;;;;;5.28;2.40;;;23.80;49.20;;;;;;5108795;27;45220;-66
2023/09/30 01:33:35;;;;;;;5.05;2.17;;;23.80;49.20;;;;;;5108960;27;45394;-65
2023/09/30 01:36:02;;;;;;;4.88;2.30;;;23.80;49.20;;;;;;5108632;27;45368;-67
2023/09/30 01:38:28;;;;;;;5.72;2.25;;;23.80;49.20;;;;;;5108629;27;46407;-66
2023/09/30 01:40:57;;;;;;;5.15;1.98;;;23.80;49.30;;;;;;5108974;27;45311;-66
2023/09/30 01:43:23;;;;;;;4.32;2.53;;;23.80;49.30;;;;;;5108828;27;45171;-66
2023/09/30 01:45:50;;;;;;;4.53;2.17;;;23.80;49.30;;;;;;5108935;27;45247;-66
2023/09/30 01:48:17;;;;;;;6.20;2.88;;;23.80;49.30;;;;;;5108509;27;46379;-66
2023/09/30 01:50:44;;;;;;;4.93;2.13;;;23.70;49.20;;;;;;5108495;27;45299;-66
2023/09/30 01:53:11;;;;;;;4.65;2.00;;;23.70;49.20;;;;;;5108634;27;45248;-66
2023/09/30 01:55:38;;;;;;;3.13;2.03;;;23.70;49.30;;;;;;5108750;27;45167;-66
2023/09/30 01:58:07;;;;;;;4.47;2.28;;;23.70;49.30;;;;;;5108615;27;45482;-66
2023/09/30 02:00:35;;;;;;;4.22;1.95;;;23.70;49.90;;;;;;5108354;27;45440;-66
2023/09/30 02:03:01;;;;;;;5.13;2.65;;;23.70;49.30;;;;;;5108641;27;45287;-65
2023/09/30 02:05:28;;;;;;;4.13;2.08;;;23.70;49.30;;;;;;5108565;27;45206;-65
2023/09/30 02:07:55;;;;;;;4.18;2.40;;;23.70;49.40;;;;;;5108353;27;46317;-65
2023/09/30 02:10:22;;;;;;;4.70;2.00;;;23.70;49.40;;;;;;5107466;27;45274;-66
2023/09/30 02:12:49;;;;;;;5.40;2.20;;;23.70;50.00;;;;;;5108406;27;45271;-66
2023/09/30 02:15:17;;;;;;;5.10;2.38;;;23.70;49.40;;;;;;5108451;27;45383;-66
2023/09/30 02:17:45;;;;;;;3.47;1.88;;;23.60;49.40;;;;;;5108104;27;46393;-66
2023/09/30 02:20:18;;;;;;;4.43;2.38;;;23.60;49.40;;;;;;5107988;27;45322;-65
2023/09/30 02:22:46;;;;;;;5.57;2.22;;;23.60;49.40;;;;;;5108216;27;45238;-65
2023/09/30 02:25:13;;;;;;;4.13;2.08;;;23.60;49.40;;;;;;5108397;27;45270;-65
2023/09/30 02:27:41;;;;;;;4.53;2.30;;;23.60;49.40;;;;;;5108030;27;47247;-66
2023/09/30 02:30:10;;;;;;;4.72;2.50;;;23.60;49.40;;;;;;5108027;27;45192;-65
2023/09/30 02:32:39;;;;;;;5.05;2.55;;;23.50;49.40;;;;;;5108058;27;45299;-66
2023/09/30 02:35:07;;;;;;;3.63;2.10;;;23.50;49.50;;;;;;5108046;27;45225;-66
2023/09/30 02:37:35;;;;;;;3.33;1.60;;;23.50;49.50;;;;;;5107817;27;45221;-66
2023/09/30 02:40:05;;;;;;;3.05;1.90;;;23.50;49.50;;;;;;5107838;27;45311;-65
2023/09/30 02:42:32;;;;;;;3.55;1.80;;;23.50;49.50;;;;;;5108001;27;45181;-65
2023/09/30 02:45:00;;;;;;;2.67;1.85;;;23.50;49.60;;;;;;5108140;27;45416;-65
2023/09/30 02:47:27;;;;;;;3.72;1.90;;;23.40;49.60;;;;;;5107681;27;47603;-65
2023/09/30 02:49:56;;;;;;;4.95;1.98;;;23.40;49.60;;;;;;5107599;27;45345;-66
2023/09/30 02:52:22;;;;;;;5.28;2.78;;;23.40;49.60;;;;;;5107779;27;45332;-65
2023/09/30 02:54:49;;;;;;;6.15;2.20;;;23.40;49.60;;;;;;5107984;27;45294;-66
2023/09/30 02:57:17;;;;;;;4.15;2.20;;;23.40;49.70;;;;;;5107808;27;45430;-66
2023/09/30 02:59:49;;;;;;;2.85;2.08;;;23.40;49.60;;;;;;5107449;27;45421;-66
2023/09/30 03:02:18;;;;;;;4.57;2.28;;;23.30;49.60;;;;;;5107742;27;45322;-66
2023/09/30 03:04:44;;;;;;;4.85;2.47;;;23.30;49.60;;;;;;5107743;27;45324;-67
2023/09/30 03:07:14;;;;;;;4.65;2.30;;;23.30;49.60;;;;;;5107401;27;46581;-66
2023/09/30 03:09:42;;;;;;;4.32;2.40;;;23.30;49.60;;;;;;5107561;27;45604;-66
2023/09/30 03:12:08;;;;;;;3.30;1.98;;;23.30;49.60;;;;;;5107610;27;45320;-67
2023/09/30 03:14:35;;;;;;;4.05;2.25;;;23.30;49.60;;;;;;5107580;27;45449;-66
2023/09/30 03:17:03;;;;;;;5.20;2.08;;;23.30;49.60;;;;;;5107297;27;46677;-66
2023/09/30 03:19:30;;;;;;;3.25;1.80;;;23.20;49.60;;;;;;5107135;27;45207;-66
2023/09/30 03:21:57;;;;;;;3.30;2.03;;;23.20;49.60;;;;;;5107268;27;45354;-65
2023/09/30 03:24:26;;;;;;;4.55;1.83;;;23.20;49.60;;;;;;5107345;27;45231;-66
2023/09/30 03:26:53;;;;;;;5.28;2.03;;;23.20;49.60;;;;;;5107114;27;46654;-66
2023/09/30 03:29:21;;;;;;;3.70;1.70;;;23.20;49.70;;;;;;5107304;27;45278;-66
2023/09/30 03:31:48;;;;;;;4.30;2.10;;;23.20;49.70;;;;;;5107207;27;45313;-66
2023/09/30 03:34:16;;;;;;;3.53;1.90;;;23.10;49.70;;;;;;5107217;27;45344;-66
2023/09/30 03:36:43;;;;;;;4.25;1.98;;;23.10;49.70;;;;;;5106601;27;45371;-66
2023/09/30 03:39:14;;;;;;;2.58;1.60;;;23.10;49.70;;;;;;5106844;27;45289;-66
2023/09/30 03:41:42;;;;;;;4.63;2.13;;;23.10;49.70;;;;;;5107040;27;45313;-66
2023/09/30 03:44:09;;;;;;;4.68;1.85;;;23.10;49.60;;;;;;5107142;27;45277;-66
2023/09/30 03:46:36;;;;;;;6.15;2.65;;;23.00;49.60;;;;;;5106865;27;47291;-65
2023/09/30 03:49:03;;;;;;;4.10;2.10;;;23.00;49.70;;;;;;5106986;27;45349;-65
2023/09/30 03:51:30;;;;;;;5.47;2.00;;;23.00;49.70;;;;;;5106881;27;45378;-65
2023/09/30 03:53:57;;;;;;;5.20;2.28;;;23.00;49.70;;;;;;5107039;27;45230;-66
2023/09/30 03:56:24;;;;;;;4.88;2.58;;;23.00;49.70;;;;;;5106620;27;46425;-65
2023/09/30 03:58:52;;;;;;;4.95;2.08;;;23.00;49.70;;;;;;5106908;27;45195;-65
2023/09/30 04:01:19;;;;;;;4.80;2.33;;;23.00;49.70;;;;;;5106999;27;45378;-65
2023/09/30 04:03:46;;;;;;;6.68;2.13;;;22.90;49.70;;;;;;5106949;27;45327;-65
2023/09/30 04:06:13;;;;;;;4.88;1.90;;;22.90;49.70;;;;;;5106252;27;45363;-65
2023/09/30 04:08:40;;;;;;;2.65;1.65;;;22.90;50.40;;;;;;5106570;27;45283;-66
2023/09/30 04:11:07;;;;;;;4.80;2.20;;;22.90;49.80;;;;;;5106630;27;45299;-65
2023/09/30 04:13:34;;;;;;;3.38;1.90;;;22.90;49.80;;;;;;5106753;27;45274;-67
2023/09/30 04:16:03;;;;;;;3.53;1.85;;;22.90;49.80;;;;;;5106379;27;46613;-65
2023/09/30 04:18:30;;;;;;;4.28;2.13;;;22.90;49.80;;;;;;5106336;27;45364;-66
2023/09/30 04:20:57;;;;;;;3.78;1.90;;;22.90;49.80;;;;;;5106510;27;45246;-66
2023/09/30 04:23:23;;;;;;;3.63;2.10;;;22.80;49.70;;;;;;5106861;27;45420;-66
2023/09/30 04:25:50;;;;;;;4.30;2.10;;;22.80;49.80;;;;;;5106182;27;46726;-65
2023/09/30 04:28:20;;;;;;;4.82;2.20;;;22.80;49.80;;;;;;5106284;27;45264;-66
2023/09/30 04:30:48;;;;;;;4.68;2.10;;;22.80;49.80;;;;;;5106565;27;45200;-65
2023/09/30 04:33:17;;;;;;;4.57;2.13;;;22.70;49.80;;;;;;5106557;27;45327;-65
2023/09/30 04:35:44;;;;;;;6.00;1.95;;;22.70;49.80;;;;;;5109582;27;46377;-65
2023/09/30 04:38:11;;;;;;;6.55;1.73;;;22.70;49.80;;;;;;5109955;27;45287;-66
2023/09/30 04:40:38;;;;;;;4.43;2.03;;;22.70;49.90;;;;;;5110206;27;45295;-65
2023/09/30 04:43:05;;;;;;;3.40;2.03;;;22.70;49.90;;;;;;5110081;27;45248;-65
2023/09/30 04:45:32;;;;;;;4.10;2.10;;;22.70;49.90;;;;;;5109496;27;45344;-65
2023/09/30 04:48:01;;;;;;;4.13;1.73;;;22.70;49.80;;;;;;5109680;27;45200;-65
2023/09/30 04:50:30;;;;;;;4.20;1.63;;;22.60;49.80;;;;;;5109637;27;45301;-65
2023/09/30 04:52:57;;;;;;;5.30;2.05;;;22.60;49.80;;;;;;5110081;27;45264;-65
2023/09/30 04:55:24;;;;;;;3.58;1.80;;;22.60;49.80;;;;;;5109500;27;45289;-66
2023/09/30 04:57:51;;;;;;;3.78;1.95;;;22.60;49.80;;;;;;5109641;27;45162;-65
2023/09/30 05:00:18;;;;;;;3.42;1.83;;;22.60;49.80;;;;;;5109668;27;45354;-65
2023/09/30 05:02:45;;;;;;;2.90;1.83;;;22.60;49.90;;;;;;5109721;27;45455;-65
2023/09/30 05:05:12;;;;;;;3.28;1.95;;;22.60;49.90;;;;;;5109390;27;45456;-65
2023/09/30 05:07:41;;;;;;;5.53;2.33;;;22.60;49.90;;;;;;5109518;27;45282;-65
2023/09/30 05:10:11;;;;;;;2.88;1.73;;;22.60;50.50;;;;;;5109615;27;45533;-65
2023/09/30 05:12:38;;;;;;;3.08;1.73;;;22.50;49.90;;;;;;5109629;27;45240;-66
2023/09/30 05:15:06;;;;;;;2.60;1.77;;;22.50;50.60;;;;;;5109326;27;45664;-65
2023/09/30 05:17:32;;;;;;;4.25;1.80;;;22.50;50.00;;;;;;5109066;27;45260;-65
2023/09/30 05:20:00;;;;;;;4.18;1.65;;;22.50;49.90;;;;;;5109448;27;45314;-65
2023/09/30 05:22:26;;;;;;;4.15;1.90;;;22.50;50.00;;;;;;5109473;27;45485;-66
2023/09/30 05:24:56;;;;;;;4.07;1.80;;;22.50;49.90;;;;;;5108994;27;46643;-65
2023/09/30 05:27:23;;;;;;;5.00;1.70;;;22.50;50.00;;;;;;5109142;27;45311;-66
2023/09/30 05:29:50;;;;;;;2.88;1.67;;;22.50;50.00;;;;;;5109320;27;45335;-65
2023/09/30 05:32:18;;;;;;;3.67;1.50;;;22.50;50.00;;;;;;5109238;27;45532;-66
2023/09/30 05:34:45;;;;;;;3.22;1.85;;;22.50;50.00;;;;;;5108804;27;46747;-66
2023/09/30 05:37:12;;;;;;;3.65;1.55;;;22.50;50.00;;;;;;5108925;27;45309;-66
2023/09/30 05:39:40;;;;;;;1.98;1.35;;;22.50;50.00;;;;;;5109106;27;45321;-65
2023/09/30 05:42:10;;;;;;;5.45;2.30;;;22.50;50.00;;;;;;5109154;27;45365;-65
2023/09/30 05:44:37;;;;;;;3.40;1.75;;;22.50;50.00;;;;;;5108584;27;45460;-65
2023/09/30 05:47:05;;;;;;;3.33;1.55;;;22.40;49.90;;;;;;5107590;27;45310;-65
2023/09/30 05:49:31;;;;;;;4.35;1.77;;;22.40;50.00;;;;;;5109033;27;45315;-65
2023/09/30 05:51:59;;;;;;;3.20;1.70;;;22.40;49.90;;;;;;5108992;27;45188;-65
2023/09/30 05:54:26;;;;;;;4.10;1.75;;;22.40;50.00;;;;;;5108695;27;45284;-66
2023/09/30 05:56:52;;;;;;;3.42;1.95;;;22.40;50.00;;;;;;5109095;27;45207;-65
2023/09/30 05:59:21;;;;;;;3.70;1.60;;;22.40;49.90;;;;;;5108670;27;45390;-65
2023/09/30 06:01:48;;;;;;;3.53;1.80;;;22.40;49.90;;;;;;5108862;27;45331;-65
2023/09/30 06:04:14;;;;;;;3.47;1.80;;;22.40;50.00;;;;;;5108397;27;46833;-65
2023/09/30 06:06:42;;;;;;;4.00;1.80;;;22.40;50.00;;;;;;5108267;27;45250;-65
2023/09/30 06:09:09;;;;;;;5.07;1.77;;;22.40;50.00;;;;;;5108985;27;45279;-66
2023/09/30 06:11:36;;;;;;;3.55;1.80;;;22.40;49.90;;;;;;5108784;27;45422;-66
2023/09/30 06:14:06;;;;;;;4.60;1.75;;;22.40;49.90;;;;;;5108234;27;45253;-66
2023/09/30 06:16:34;;;;;;;1.90;1.63;;;22.40;49.90;;;;;;5105687;27;45196;-66
2023/09/30 06:19:01;;;;;;;4.28;1.67;;;22.30;49.90;;;;;;5108435;27;45414;-66
2023/09/30 06:21:29;;;;;;;3.33;1.50;;;22.30;49.90;;;;;;5108743;27;45556;-66
2023/09/30 06:23:56;;;;;;;3.33;1.77;;;22.40;49.90;;;;;;5108029;27;46445;-66
2023/09/30 06:26:24;;;;;;;3.83;1.80;;;22.30;50.50;;;;;;5108032;27;45325;-66
2023/09/30 06:28:53;;;;;;;2.92;1.77;;;22.30;49.80;;;;;;5108475;27;45275;-66
2023/09/30 06:31:20;;;;;;;3.58;1.80;;;22.40;49.80;;;;;;5108468;27;45211;-66
2023/09/30 06:33:49;;;;;;;3.75;1.50;;;22.30;49.80;;;;;;5107903;27;46366;-66
2023/09/30 06:36:16;;;;;;;5.57;1.90;;;22.30;49.80;;;;;;5107623;27;45237;-65
2023/09/30 06:38:43;;;;;;;3.97;1.95;;;22.40;49.80;;;;;;5108133;27;45307;-66
2023/09/30 06:41:10;;;;;;;5.68;2.00;;;22.30;49.70;;;;;;5108100;27;45200;-66
2023/09/30 06:43:37;;;;;;;3.22;1.60;;;22.30;49.70;;;;;;5107721;27;46423;-64
2023/09/30 06:46:08;;;;;;;2.25;1.70;;;22.30;49.70;;;;;;5107668;27;45299;-66
2023/09/30 06:48:35;;;;;;;2.83;1.85;;;22.40;49.70;;;;;;5107976;27;45240;-66
2023/09/30 06:51:03;;;;;;;2.95;1.70;;;22.30;49.70;;;;;;5108250;27;45195;-66
2023/09/30 06:53:30;;;;;;;2.72;1.83;;;22.30;49.70;;;;;;5107929;27;46927;-66
2023/09/30 06:55:57;;;;;;;4.43;1.55;;;22.30;49.70;;;;;;5107708;27;45324;-66
2023/09/30 06:58:23;;;;;;;3.25;1.60;;;22.40;49.80;;;;;;5107677;27;45435;-66
2023/09/30 07:00:51;;;;;;;2.70;1.83;;;22.40;49.70;;;;;;5108040;27;45423;-66
2023/09/30 07:03:19;;;;;;;2.65;1.50;;;22.40;49.70;;;;;;5107389;27;45185;-66
2023/09/30 07:05:49;;;;;;;4.85;1.85;;;22.40;49.70;;;;;;5107479;27;45354;-66
2023/09/30 07:08:18;;;;;;;2.95;1.63;;;22.40;49.70;;;;;;5107633;27;45218;-66
2023/09/30 07:10:45;;;;;;;3.08;1.70;;;22.40;49.70;;;;;;5107769;27;45166;-66
2023/09/30 07:13:12;;;;;;;3.65;1.65;;;22.40;49.80;;;;;;5107391;27;46280;-66
2023/09/30 07:15:39;;;;;;;3.25;1.98;;;22.40;49.70;;;;;;5107225;27;45264;-66
2023/09/30 07:18:06;;;;;;;2.17;1.42;;;22.40;49.80;;;;;;5107633;27;45230;-66
2023/09/30 07:20:33;;;;;;;2.70;1.65;;;22.40;49.80;;;;;;5107593;27;45175;-66
2023/09/30 07:23:00;;;;;;;2.17;1.52;;;22.40;49.80;;;;;;5107205;27;45198;-66
2023/09/30 07:25:31;;;;;;;1.83;1.55;;;22.40;49.80;;;;;;5107354;27;45306;-65
2023/09/30 07:27:58;;;;;;;5.28;2.03;;;22.40;49.80;;;;;;5107303;27;45165;-66
2023/09/30 07:30:26;;;;;;;3.42;1.73;;;22.40;49.80;;;;;;5107417;27;45295;-66
2023/09/30 07:32:53;;;;;;;4.28;1.90;;;22.40;49.80;;;;;;5107067;27;46723;-65
2023/09/30 07:35:19;;;;;;;4.32;1.77;;;22.40;49.80;;;;;;5106520;27;45252;-65
2023/09/30 07:37:46;;;;;;;2.63;1.58;;;22.40;49.80;;;;;;5107111;27;45292;-66
2023/09/30 07:40:14;;;;;;;2.88;1.55;;;22.40;49.90;;;;;;5107336;27;45343;-66
2023/09/30 07:42:43;;;;;;;5.18;1.95;;;22.50;50.00;;;;;;5106927;27;47107;-66
2023/09/30 07:45:11;;;;;;;5.07;1.83;;;22.50;50.00;;;;;;5107140;27;45318;-66
2023/09/30 07:47:38;;;;;;;4.40;2.17;;;22.50;50.00;;;;;;5106983;27;45213;-66
2023/09/30 07:50:09;;;;;;;2.90;1.70;;;22.50;50.00;;;;;;5107477;27;45151;-65
2023/09/30 07:52:36;;;;;;;4.45;1.95;;;22.50;50.00;;;;;;5106834;27;45566;-67
2023/09/30 07:55:04;;;;;;;3.72;2.05;;;22.50;50.40;;;;;;5107003;27;45236;-66
2023/09/30 07:57:31;;;;;;;3.63;1.85;;;22.50;50.10;;;;;;5107005;27;45333;-66
2023/09/30 08:00:00;;;;;;;4.10;1.90;;;22.50;50.70;;;;;;5107243;27;45287;-66
2023/09/30 08:02:33;;;;;;;3.55;1.90;;;22.50;50.10;;;;;;5106774;27;47616;-66
2023/09/30 08:05:00;;;;;;;3.58;1.70;;;22.60;50.10;;;;;;5106632;27;45385;-66
2023/09/30 08:07:27;;;;;;;3.63;2.00;;;22.60;50.10;;;;;;5106956;27;45210;-66
2023/09/30 08:09:54;;;;;;;3.40;1.70;;;22.60;50.10;;;;;;5106356;27;45126;-65
2023/09/30 08:12:21;;;;;;;3.42;1.77;;;22.60;50.10;;;;;;5106597;27;46940;-66
2023/09/30 08:14:48;;;;;;;2.85;1.85;;;22.60;50.10;;;;;;5106792;27;45257;-66
2023/09/30 08:17:17;;;;;;;3.75;1.90;;;22.60;50.10;;;;;;5106906;27;45255;-66
2023/09/30 08:19:44;;;;;;;3.00;1.60;;;22.60;50.10;;;;;;5107008;27;45287;-66
2023/09/30 08:22:11;;;;;;;2.25;1.40;;;22.60;50.10;;;;;;5106371;27;45389;-66
2023/09/30 08:24:38;;;;;;;3.30;1.55;;;22.60;50.10;;;;;;5106639;27;45362;-66
2023/09/30 08:27:05;;;;;;;4.35;2.00;;;22.70;50.10;;;;;;5106571;27;45480;-65
2023/09/30 08:29:35;;;;;;;4.20;1.77;;;22.70;50.10;;;;;;5107263;27;45458;-64
2023/09/30 08:32:02;;;;;;;4.05;2.10;;;22.70;50.10;;;;;;5107014;27;45478;-65
2023/09/30 08:34:31;;;;;;;3.42;1.77;;;22.70;50.10;;;;;;5107210;27;45386;-66
2023/09/30 08:36:58;;;;;;;3.05;1.90;;;22.80;50.10;;;;;;5106216;27;45256;-66
2023/09/30 08:39:25;;;;;;;2.78;1.55;;;22.80;50.10;;;;;;5106934;27;45252;-66
2023/09/30 08:41:52;;;;;;;3.03;1.60;;;22.80;50.70;;;;;;5106179;27;45401;-66
2023/09/30 08:44:19;;;;;;;4.00;1.52;;;22.80;50.10;;;;;;5106281;27;45325;-66
2023/09/30 08:46:47;;;;;;;3.00;1.80;;;22.80;50.70;;;;;;5106475;27;45304;-67
2023/09/30 08:49:14;;;;;;;3.13;1.70;;;22.80;50.10;;;;;;5106839;27;45464;-66
2023/09/30 08:51:42;;;;;;;6.05;1.98;;;22.90;50.20;;;;;;5106277;27;46390;-66
2023/09/30 08:54:09;;;;;;;2.53;1.60;;;22.90;50.20;;;;;;5110751;27;45252;-66
2023/09/30 08:56:36;;;;;;;4.07;1.67;;;22.90;50.20;;;;;;5111095;27;45276;-64
2023/09/30 08:59:03;;;;;;;5.03;1.98;;;22.90;50.20;;;;;;5106597;27;45565;-67
2023/09/30 09:01:31;;;;;;;2.67;1.65;;;22.90;50.30;;;;;;5106165;27;46287;-66
2023/09/30 09:03:58;;;;;;;3.55;1.70;;;22.90;50.30;;;;;;5106371;27;45318;-66
2023/09/30 09:06:25;;;;;;;3.15;1.63;;;22.90;50.20;;;;;;5106478;27;45322;-66
2023/09/30 09:08:53;;;;;;;4.13;2.03;;;23.00;50.20;;;;;;5106498;27;45199;-65
2023/09/30 09:11:21;;;;;;;3.72;2.10;;;23.00;50.20;;;;;;5106073;27;45201;-66
2023/09/30 09:13:49;;;;;;;5.57;2.22;;;23.00;50.50;;;;;;5106053;27;45373;-67
2023/09/30 09:16:17;;;;;;;9.10;2.30;;;23.00;50.90;;;;;;5106262;27;45337;-66
2023/09/30 09:18:44;;;;;;;6.38;1.58;;;23.10;51.20;;;;;;5106064;27;45375;-66
2023/09/30 09:21:12;;;;;;;4.28;1.67;;;23.20;51.30;;;;;;5105531;27;46836;-66
2023/09/30 09:23:43;;;;;;;2.95;1.70;;;23.30;51.10;;;;;;5110971;27;45387;-70
2023/09/30 09:26:12;;;;;;;8.20;1.98;;;23.40;51.20;;;;;;5109955;27;45221;-68
2023/09/30 09:28:39;;;;;;;6.75;1.70;;;23.50;50.60;;;;;;5112844;27;45237;-69
2023/09/30 09:31:22;;;;;;;11.07;2.63;;;23.50;50.20;;;;;;5109167;27;45366;-64
2023/09/30 09:33:50;;;;;;;6.20;2.00;;;23.60;50.70;;;;;;5107957;27;45289;-66
2023/09/30 09:36:17;;;;;;;12.00;1.83;;;23.60;50.40;;;;;;5109472;27;45326;-70
2023/09/30 09:38:49;;;;;;;4.55;1.63;;;23.70;50.60;;;;;;5110081;27;45399;-68
2023/09/30 09:41:18;;;;;;;8.68;1.95;;;23.80;50.00;;;;;;5110590;27;45722;-64
2023/09/30 09:43:45;;;;;;;5.00;1.75;;;23.80;49.90;;;;;;5113353;27;45192;-66
2023/09/30 09:46:13;;;;;;;5.35;2.28;;;23.90;49.70;;;;;;5111080;27;45210;-67
2023/09/30 09:48:40;;;;;;;4.60;1.92;;;24.00;50.40;;;;;;5109907;27;45325;-67
2023/09/30 09:51:07;;;;;;;6.32;2.00;;;24.10;49.60;;;;;;5109412;27;46269;-66
2023/09/30 09:53:37;;;;;;;11.43;2.10;;;24.10;49.10;;;;;;5109708;27;45207;-68
2023/09/30 09:56:04;;;;;;;12.63;2.15;;;24.10;49.90;;;;;;5110083;27;45233;-66
2023/09/30 09:58:34;;;;;;;8.15;1.77;;;24.20;49.30;;;;;;5109841;27;45388;-67
2023/09/30 10:01:02;;;;;;;3.40;1.50;;;24.20;49.20;;;;;;5109120;27;45246;-67
2023/09/30 10:03:29;;;;;;;7.80;1.50;;;24.20;49.40;;;;;;5108926;27;45350;-67
2023/09/30 10:05:56;;;;;;;4.05;1.77;;;24.40;49.60;;;;;;5109205;27;45418;-70
2023/09/30 10:08:23;;;;;;;13.43;2.38;;;24.50;49.60;;;;;;5109811;27;45180;-71
2023/09/30 10:10:50;;;;;;;13.30;1.83;;;24.50;49.00;;;;;;5109202;27;45237;-69
2023/09/30 10:13:55;;;;;;;6.18;1.83;;;24.60;48.70;;;;;;5109328;27;45267;-68
2023/09/30 10:16:50;;;;;;;3.60;1.63;;;24.60;48.60;;;;;;5106928;27;45329;-67
2023/09/30 10:19:18;;;;;;;11.18;2.10;;;24.70;48.60;;;;;;5109238;27;45403;-70
2023/09/30 10:22:23;;;;;;;3.88;1.67;;;24.70;48.70;;;;;;5109098;27;45793;-69
2023/09/30 10:24:50;;;;;;;13.15;1.95;;;24.80;48.40;;;;;;5108567;27;45318;-66
2023/09/30 10:27:37;;;;;;;5.70;1.63;;;24.90;48.10;;;;;;5108401;27;45168;-67
2023/09/30 10:30:13;;;;;;;14.02;2.63;;;24.90;48.40;;;;;;5108688;27;45130;-68
2023/09/30 10:33:11;;;;;;;10.73;2.00;;;25.00;48.70;;;;;;5107654;27;46657;-67
2023/09/30 10:35:47;;;;;;;5.45;1.88;;;25.10;48.70;;;;;;5108057;27;45369;-67
2023/09/30 10:38:40;;;;;;;7.25;1.92;;;25.30;48.40;;;;;;5108741;27;45421;-69
2023/09/30 10:41:11;;;;;;;7.65;2.08;;;25.40;47.90;;;;;;5108309;27;45392;-66
2023/09/30 10:43:39;;;;;;;8.07;1.90;;;25.40;47.40;;;;;;5108032;27;45542;-66
2023/09/30 10:46:30;;;;;;;8.50;2.17;;;25.50;48.10;;;;;;5108120;27;45173;-70
2023/09/30 10:48:57;;;;;;;8.77;2.30;;;25.50;47.60;;;;;;5108412;27;45370;-66
2023/09/30 10:51:25;;;;;;;9.25;1.70;;;25.60;47.50;;;;;;5108282;27;45572;-66
2023/09/30 10:53:52;;;;;;;8.10;2.30;;;25.60;47.50;;;;;;5108129;27;46540;-65
2023/09/30 10:56:21;;;;;;;9.95;2.22;;;25.70;47.30;;;;;;5107860;27;45351;-64
2023/09/30 10:58:49;;;;;;;8.38;2.10;;;25.80;47.10;;;;;;5107782;27;45325;-66
2023/09/30 11:01:18;;;;;;;8.63;2.08;;;25.90;47.00;;;;;;5108801;27;45364;-72
2023/09/30 11:03:45;;;;;;;5.22;1.58;;;26.00;47.10;;;;;;5107978;27;45548;-65
2023/09/30 11:06:17;;;;;;;8.88;1.63;;;26.10;46.80;;;;;;5108219;27;45294;-67
2023/09/30 11:08:46;;;;;;;6.32;1.67;;;26.20;46.90;;;;;;5107947;27;45351;-65
2023/09/30 11:11:14;;;;;;;6.90;1.90;;;26.30;46.80;;;;;;5108048;27;45232;-68
2023/09/30 11:13:41;;;;;;;8.68;1.58;;;26.40;46.60;;;;;;5107927;27;45313;-67
2023/09/30 11:16:07;;;;;;;7.57;1.60;;;26.50;46.40;;;;;;5107398;27;45499;-66
2023/09/30 11:18:37;;;;;;;11.48;2.03;;;26.50;46.10;;;;;;5107934;27;45409;-70
2023/09/30 11:21:05;;;;;;;7.53;2.25;;;26.60;46.20;;;;;;5108390;27;45200;-66
2023/09/30 11:23:32;;;;;;;8.57;1.63;;;26.60;45.70;;;;;;5107632;27;45558;-66
2023/09/30 11:25:59;;;;;;;18.17;3.47;;;26.70;45.80;;;;;;5107240;27;45300;-66
2023/09/30 11:28:27;;;;;;;9.57;1.95;;;26.70;45.70;;;;;;5107130;27;45326;-66
2023/09/30 11:30:55;;;;;;;10.88;2.30;;;26.80;45.60;;;;;;5107779;27;45445;-65
2023/09/30 11:33:23;;;;;;;13.85;2.47;;;26.80;45.30;;;;;;5106864;27;46378;-64
2023/09/30 11:36:01;;;;;;;21.15;2.60;;;26.90;45.20;;;;;;5106610;27;45317;-64
2023/09/30 11:38:28;;;;;;;3.80;2.30;;;26.90;45.10;;;;;;5107017;27;45158;-68
2023/09/30 11:41:02;;;;;;;6.25;2.80;;;27.00;45.10;;;;;;5107587;27;45394;-66
2023/09/30 11:43:29;;;;;;;12.27;3.05;;;27.10;45.00;;;;;;5105689;27;45752;-66
2023/09/30 11:46:06;;;;;;;6.40;2.22;;;27.20;44.60;;;;;;5106584;27;45279;-67
2023/09/30 11:48:33;;;;;;;15.73;2.45;;;27.30;45.20;;;;;;5106838;27;45363;-65
2023/09/30 11:51:03;;;;;;;17.33;3.15;;;27.30;44.30;;;;;;5107132;27;45418;-68
2023/09/30 11:53:31;;;;;;;21.33;3.58;;;27.40;44.60;;;;;;5107020;27;45264;-66
2023/09/30 11:55:58;;;;;;;17.75;3.35;;;27.40;44.90;;;;;;5106727;27;45348;-65
2023/09/30 11:58:27;;;;;;;30.23;3.63;;;27.40;44.90;;;;;;5106539;27;45314;-66
2023/09/30 12:00:57;;;;;;;12.02;2.97;;;27.40;44.80;;;;;;5104197;27;45174;-66
2023/09/30 12:03:25;;;;;;;15.05;3.70;;;27.50;44.50;;;;;;5106364;27;46677;-66
2023/09/30 12:05:55;;;;;;;17.38;2.55;;;27.60;44.40;;;;;;5106391;27;45367;-65
2023/09/30 12:08:23;;;;;;;14.55;3.13;;;27.60;44.20;;;;;;5106553;27;45182;-65
2023/09/30 12:10:50;;;;;;;12.27;2.78;;;27.70;44.20;;;;;;5106709;27;45421;-66
2023/09/30 12:13:17;;;;;;;10.50;2.45;;;27.70;44.20;;;;;;5106271;27;46483;-66
2023/09/30 12:15:44;;;;;;;10.65;2.60;;;27.70;44.10;;;;;;5106528;27;45281;-65
2023/09/30 12:18:13;;;;;;;8.93;3.05;;;27.70;44.10;;;;;;5106535;27;45218;-66
2023/09/30 12:20:41;;;;;;;7.95;2.85;;;27.60;44.30;;;;;;5106794;27;45315;-65
2023/09/30 12:23:08;;;;;;;6.15;2.53;;;27.50;44.50;;;;;;5106549;27;46554;-66
2023/09/30 12:25:37;;;;;;;9.80;2.47;;;27.30;44.60;;;;;;5106077;27;45226;-66
2023/09/30 12:28:05;;;;;;;7.35;2.40;;;27.30;44.80;;;;;;5106206;27;45432;-66
2023/09/30 12:30:32;;;;;;;9.15;2.47;;;27.30;44.80;;;;;;5106640;27;45364;-65
2023/09/30 12:32:59;;;;;;;12.07;3.00;;;27.30;44.90;;;;;;5106156;27;46701;-65
2023/09/30 12:35:26;;;;;;;10.25;3.47;;;27.30;45.00;;;;;;5106182;27;45198;-66
2023/09/30 12:37:53;;;;;;;5.93;2.50;;;27.30;45.00;;;;;;5106182;27;45346;-66
2023/09/30 12:40:20;;;;;;;6.85;2.40;;;27.30;45.00;;;;;;5106536;27;45294;-66
2023/09/30 12:42:48;;;;;;;11.20;2.85;;;27.40;44.80;;;;;;5106023;27;46722;-66
2023/09/30 12:45:17;;;;;;;5.50;2.50;;;27.40;44.80;;;;;;5106184;27;45242;-66
2023/09/30 12:47:44;;;;;;;9.57;2.53;;;27.40;44.90;;;;;;5106141;27;45355;-65
2023/09/30 12:50:11;;;;;;;5.60;2.53;;;27.40;45.00;;;;;;5106555;27;45329;-65